Midpark, Ohio
Current Conditions -  °F | °C
As of 12:51 PM on Thursday 23 Oct 2014 (Local Time) from KCLE Reporting Station
Broken Clouds Broken Clouds  
Wind Chill: 53°   Ceiling: 1800
Heat Index: 53°   Visibility: 10mi
Dew Point: 45°   Wind: 10mph
Humidity: 74%   Direction: 330°NNW
Pressure: 30.22"   Gusts: NA
Location:  41.3776°N, 81.7863°W
Report Text: KCLE 231651Z 33009KT 10SM BKN018 12/07 A3022 RMK AO2 SLP235 T01170072
Loading
Personal Weather Stations






























Interactive Weather Map
Tropical Storm Tracking
New forecast layout! Learn more

10-Day Weather Forecast

Advertisements
Track Severe Weather on mobile